Time;durP1;ratioP1;P1;durP2;ratioP2;P2;SDS_P1;SDS_P2;PMS_P1;PMS_P2;Temp;Humidity;BMP_temperature;BMP_pressure;BME280_temperature;BME280_humidity;BME280_pressure;Samples;Min_cycle;Max_cycle;Signal;HPM_P1;HPM_P2
2023/07/08 00:01:12;;;;;;;13.82;8.07;;;;;;;24.25;42.55;99982.94;6046593;23;20080;-84
2023/07/08 00:03:39;;;;;;;12.52;8.07;;;;;;;24.26;42.07;99977.25;6094623;23;20022;-84
2023/07/08 00:06:19;;;;;;;13.55;8.05;;;;;;;24.15;42.82;99975.28;6071960;23;20121;-85
2023/07/08 00:08:46;;;;;;;12.88;8.57;;;;;;;24.21;42.37;99968.97;6092909;23;20796;-84
2023/07/08 00:11:14;;;;;;;15.20;8.75;;;;;;;24.22;42.62;99976.06;6094583;23;20445;-84
2023/07/08 00:13:41;;;;;;;14.43;8.48;;;;;;;24.16;42.67;99970.69;6046121;23;20457;-84
2023/07/08 00:16:12;;;;;;;12.75;8.13;;;;;;;24.14;42.62;99968.19;6068901;23;20097;-86
2023/07/08 00:18:39;;;;;;;12.05;7.72;;;;;;;24.14;42.48;99961.94;6119121;23;20048;-86
2023/07/08 00:21:16;;;;;;;14.27;8.27;;;;;;;24.09;41.93;99962.59;6071050;23;20021;-84
2023/07/08 00:23:47;;;;;;;13.70;8.88;;;;;;;24.11;42.50;99959.66;6094978;23;20122;-84
2023/07/08 00:26:17;;;;;;;15.05;8.32;;;;;;;24.07;42.26;99962.00;6118159;23;20080;-84
2023/07/08 00:28:44;;;;;;;13.55;7.90;;;;;;;24.11;41.90;99954.25;6093557;23;20681;-84
2023/07/08 00:31:11;;;;;;;15.25;7.97;;;;;;;24.12;41.29;99955.88;6046522;23;20052;-85
2023/07/08 00:33:38;;;;;;;12.40;7.57;;;;;;;24.09;41.72;99951.72;6045602;23;20018;-84
2023/07/08 00:36:12;;;;;;;13.43;8.15;;;;;;;24.01;41.35;99946.59;6071056;23;20355;-84
2023/07/08 00:38:44;;;;;;;12.02;8.10;;;;;;;24.07;41.50;99953.88;6071434;23;20049;-84
2023/07/08 00:41:16;;;;;;;14.27;8.23;;;;;;;24.02;41.97;99957.22;6071474;23;20528;-84
2023/07/08 00:43:47;;;;;;;14.77;8.15;;;;;;;23.99;42.33;99954.13;6092838;23;20036;-84
2023/07/08 00:46:29;;;;;;;13.60;8.07;;;;;;;23.88;42.50;99960.25;6093903;23;20414;-87
2023/07/08 00:49:03;;;;;;;15.90;8.55;;;;;;;23.91;42.72;99957.94;6093615;23;20017;-84
2023/07/08 00:51:30;;;;;;;12.40;8.45;;;;;;;23.91;42.60;99968.78;6069596;23;20092;-84
2023/07/08 00:53:57;;;;;;;11.35;7.43;;;;;;;23.90;42.74;99971.72;6046365;23;20076;-84
2023/07/08 00:56:27;;;;;;;12.73;8.30;;;;;;;23.88;42.60;99976.53;6070586;23;20068;-84
2023/07/08 00:58:58;;;;;;;12.27;8.13;;;;;;;23.82;42.99;99980.97;6094244;23;20030;-84
2023/07/08 01:01:25;;;;;;;13.93;7.43;;;;;;;23.82;42.82;99984.50;6093317;23;20104;-84
2023/07/08 01:04:23;;;;;;;13.95;8.07;;;;;;;23.64;43.48;99988.97;6093349;23;20032;-84
2023/07/08 01:06:58;;;;;;;11.45;7.82;;;;;;;23.72;43.16;99980.56;6091972;23;20036;-83
2023/07/08 01:09:37;;;;;;;13.65;7.82;;;;;;;23.69;43.38;99987.25;6070270;23;20033;-83
2023/07/08 01:12:08;;;;;;;11.40;7.68;;;;;;;23.72;43.22;99981.44;6069652;23;20072;-84
2023/07/08 01:14:37;;;;;;;14.52;8.45;;;;;;;23.73;43.01;99983.06;6118304;23;20028;-84
2023/07/08 01:17:04;;;;;;;14.02;8.40;;;;;;;23.74;42.96;99992.06;6046911;23;20100;-84
2023/07/08 01:19:34;;;;;;;11.65;7.78;;;;;;;23.72;42.44;99978.72;6069961;23;20025;-84
2023/07/08 01:22:03;;;;;;;11.27;7.55;;;;;;;23.67;43.02;99983.94;6119068;23;20032;-84
2023/07/08 01:24:32;;;;;;;12.52;7.85;;;;;;;23.67;43.06;99983.94;6094934;23;20080;-83
2023/07/08 01:27:00;;;;;;;11.55;7.30;;;;;;;23.66;43.19;99982.28;6070935;23;20026;-84
2023/07/08 01:29:28;;;;;;;11.05;7.18;;;;;;;23.64;42.79;99978.94;6093501;23;20025;-84
2023/07/08 01:31:56;;;;;;;11.98;7.13;;;;;;;23.60;43.04;99975.00;6072536;23;20401;-84
2023/07/08 01:34:23;;;;;;;13.75;8.07;;;;;;;23.57;42.96;99976.28;6096338;23;20445;-83
2023/07/08 01:36:55;;;;;;;13.52;7.78;;;;;;;23.50;41.68;99982.78;6071684;23;20022;-83
2023/07/08 01:39:23;;;;;;;13.73;8.10;;;;;;;23.56;42.07;99969.19;6095653;23;20084;-83
2023/07/08 01:41:51;;;;;;;12.18;7.78;;;;;;;23.59;42.15;99966.03;6048823;23;20076;-84
2023/07/08 01:44:35;;;;;;;13.32;7.72;;;;;;;23.53;41.18;99966.06;6071126;23;20029;-84
2023/07/08 01:47:17;;;;;;;14.57;7.53;;;;;;;23.52;41.79;99969.84;6095405;23;20034;-84
2023/07/08 01:49:45;;;;;;;17.02;8.07;;;;;;;23.59;41.13;99965.22;6095264;23;20022;-84
2023/07/08 01:52:12;;;;;;;10.35;7.03;;;;;;;23.52;41.75;99961.72;6072238;23;20582;-84
2023/07/08 01:54:39;;;;;;;11.18;7.28;;;;;;;23.48;42.11;99965.91;6070463;23;20076;-84
2023/07/08 01:57:06;;;;;;;12.35;8.18;;;;;;;23.48;42.14;99964.00;6048498;23;20096;-84
2023/07/08 01:59:32;;;;;;;14.43;7.88;;;;;;;23.45;41.78;99967.16;6094531;23;20025;-84
2023/07/08 02:02:00;;;;;;;15.80;8.57;;;;;;;23.45;41.74;99966.34;6072696;23;20021;-84
2023/07/08 02:04:30;;;;;;;14.70;7.30;;;;;;;23.47;41.57;99966.94;6071990;23;20092;-84
2023/07/08 02:06:59;;;;;;;12.82;8.05;;;;;;;23.45;41.80;99961.75;6096349;23;20030;-84
2023/07/08 02:09:28;;;;;;;11.75;7.53;;;;;;;23.46;41.79;99963.41;6096365;23;20022;-84
2023/07/08 02:11:55;;;;;;;13.30;7.28;;;;;;;23.46;40.85;99958.00;6071354;23;20052;-84
2023/07/08 02:14:22;;;;;;;14.80;8.32;;;;;;;23.42;41.55;99961.34;6095951;23;20033;-84
2023/07/08 02:16:49;;;;;;;11.65;7.45;;;;;;;23.36;41.51;99952.22;6120230;23;20076;-84
2023/07/08 02:19:16;;;;;;;12.63;7.55;;;;;;;23.38;41.36;99963.66;6047886;23;20104;-84
2023/07/08 02:21:43;;;;;;;13.98;7.72;;;;;;;23.33;41.63;99961.59;6071347;23;20041;-85
2023/07/08 02:24:09;;;;;;;11.35;7.53;;;;;;;23.32;41.65;99953.69;6072047;23;20437;-84
2023/07/08 02:26:36;;;;;;;11.48;7.30;;;;;;;23.31;42.04;99949.31;6119874;23;20052;-84
2023/07/08 02:29:03;;;;;;;13.20;7.18;;;;;;;23.26;42.30;99952.69;6119467;23;20381;-87
2023/07/08 02:31:32;;;;;;;11.98;7.30;;;;;;;23.24;42.45;99943.09;6071937;23;20013;-84
2023/07/08 02:33:58;;;;;;;11.60;6.90;;;;;;;23.23;42.48;99946.84;6071347;23;20040;-84
2023/07/08 02:36:25;;;;;;;11.70;7.78;;;;;;;23.22;42.32;99950.59;6047695;23;20033;-84
2023/07/08 02:38:52;;;;;;;10.82;7.10;;;;;;;23.23;41.72;99946.84;6071944;23;20017;-84
2023/07/08 02:41:19;;;;;;;13.00;7.07;;;;;;;23.21;42.17;99944.38;6047439;23;20446;-84
2023/07/08 02:43:46;;;;;;;11.52;7.10;;;;;;;23.19;41.17;99955.41;6094444;23;20029;-86
2023/07/08 02:46:13;;;;;;;12.68;7.85;;;;;;;23.16;41.08;99955.03;6120188;23;20025;-84
2023/07/08 02:48:40;;;;;;;13.10;8.10;;;;;;;23.15;41.18;99956.03;6071796;23;20345;-83
2023/07/08 02:51:08;;;;;;;13.85;7.43;;;;;;;23.11;41.15;99958.38;6071911;23;20025;-84
2023/07/08 02:53:35;;;;;;;15.73;8.15;;;;;;;23.10;41.34;99967.56;6047042;23;20025;-83
2023/07/08 02:56:02;;;;;;;15.07;8.40;;;;;;;23.00;41.56;99959.03;6094861;23;20032;-84
2023/07/08 02:58:29;;;;;;;13.95;8.23;;;;;;;23.01;41.68;99968.00;6095099;23;20033;-86
2023/07/08 03:01:00;;;;;;;13.07;7.78;;;;;;;22.93;41.72;99975.28;6071527;23;20029;-84
2023/07/08 03:03:31;;;;;;;13.18;8.00;;;;;;;22.95;41.91;99978.59;6071999;23;20030;-84
2023/07/08 03:06:00;;;;;;;11.77;7.85;;;;;;;22.95;41.69;99980.50;6072254;23;20039;-84
2023/07/08 03:08:27;;;;;;;13.15;7.63;;;;;;;22.94;42.14;99984.22;6071333;23;20116;-84
2023/07/08 03:10:59;;;;;;;11.85;6.93;;;;;;;22.86;43.41;99984.47;6094959;23;20076;-84
2023/07/08 03:13:27;;;;;;;13.15;7.93;;;;;;;22.83;43.21;99988.44;6118522;23;20072;-84
2023/07/08 03:15:55;;;;;;;13.40;7.90;;;;;;;22.81;43.76;99989.69;6095067;23;20032;-84
2023/07/08 03:18:24;;;;;;;9.38;6.60;;;;;;;22.81;43.35;99990.50;6095688;23;20381;-84
2023/07/08 03:20:55;;;;;;;11.48;7.60;;;;;;;22.80;43.80;99991.56;6071917;23;20033;-84
2023/07/08 03:23:24;;;;;;;11.32;6.95;;;;;;;22.79;43.75;99994.47;6119368;23;20104;-84
2023/07/08 03:25:52;;;;;;;10.27;6.68;;;;;;;22.75;43.95;99992.19;6095439;23;20042;-84
2023/07/08 03:28:20;;;;;;;12.30;7.95;;;;;;;22.72;43.89;99995.31;6095051;23;20030;-84
2023/07/08 03:30:51;;;;;;;13.40;6.95;;;;;;;22.66;44.08;99989.91;6070953;23;20407;-84
2023/07/08 03:33:20;;;;;;;12.23;7.67;;;;;;;22.66;44.14;99990.75;6093692;23;20083;-84
2023/07/08 03:35:47;;;;;;;9.82;6.25;;;;;;;22.64;43.78;99995.53;6070484;23;20461;-85
2023/07/08 03:38:15;;;;;;;11.55;6.78;;;;;;;22.64;43.71;100006.34;6048608;23;20021;-84
2023/07/08 03:40:42;;;;;;;11.10;6.68;;;;;;;22.66;43.66;100004.28;6071005;23;20032;-84
2023/07/08 03:43:09;;;;;;;10.43;6.88;;;;;;;22.65;43.23;100005.31;6045695;23;20022;-83
2023/07/08 03:45:36;;;;;;;11.10;7.10;;;;;;;22.64;43.62;100008.22;6047605;23;20034;-83
2023/07/08 03:48:04;;;;;;;14.13;7.85;;;;;;;22.62;43.76;100013.88;6095126;23;20034;-84
2023/07/08 03:50:32;;;;;;;13.38;7.78;;;;;;;22.60;43.59;100015.13;6066058;23;20121;-85
2023/07/08 03:52:59;;;;;;;12.30;7.53;;;;;;;22.59;43.84;100013.44;6047305;23;20480;-84
2023/07/08 03:55:28;;;;;;;12.73;7.38;;;;;;;22.65;43.70;100018.03;6072233;23;20060;-84
2023/07/08 03:57:57;;;;;;;12.20;7.85;;;;;;;22.68;44.09;100018.44;6120192;23;20357;-84
2023/07/08 04:00:26;;;;;;;12.45;8.00;;;;;;;22.86;44.35;100017.78;6093787;23;20076;-84
2023/07/08 04:02:53;;;;;;;12.60;7.72;;;;;;;23.33;44.16;100020.38;6094250;23;20029;-84
2023/07/08 04:05:22;;;;;;;12.70;8.23;;;;;;;23.88;43.32;100020.75;6071223;23;20028;-84
2023/07/08 04:07:50;;;;;;;14.63;7.80;;;;;;;24.05;42.08;100019.19;6094505;23;20110;-84
2023/07/08 04:10:17;;;;;;;10.50;7.70;;;;;;;23.81;41.47;100025.38;6093046;23;20453;-84
2023/07/08 04:12:44;;;;;;;12.50;7.70;;;;;;;23.57;41.92;100021.53;6070123;23;20029;-86
2023/07/08 04:15:12;;;;;;;10.52;6.90;;;;;;;23.40;41.95;100023.88;6046887;23;20025;-84
2023/07/08 04:17:43;;;;;;;12.73;7.55;;;;;;;23.28;42.16;100031.88;6094067;23;20069;-84
2023/07/08 04:20:10;;;;;;;14.23;8.15;;;;;;;23.24;42.60;100027.09;6093703;23;20021;-84
2023/07/08 04:22:37;;;;;;;12.95;7.63;;;;;;;23.16;42.98;100031.69;6094129;23;20045;-84
2023/07/08 04:25:04;;;;;;;13.02;7.28;;;;;;;23.14;42.76;100024.81;6093646;23;20041;-84
2023/07/08 04:27:31;;;;;;;11.73;8.02;;;;;;;23.29;42.98;100022.69;6071074;23;20476;-84
2023/07/08 04:29:58;;;;;;;13.10;7.00;;;;;;;23.39;42.39;100024.94;6093250;23;20084;-84
2023/07/08 04:32:25;;;;;;;11.93;7.55;;;;;;;23.36;42.45;100019.97;6118684;23;20630;-84
2023/07/08 04:34:52;;;;;;;13.77;7.47;;;;;;;23.37;42.09;100021.63;6069215;23;20721;-84
2023/07/08 04:37:19;;;;;;;12.13;7.35;;;;;;;23.44;42.24;100019.72;6070331;23;20076;-84
2023/07/08 04:39:46;;;;;;;11.38;7.10;;;;;;;23.54;42.21;100017.38;6046972;23;20022;-83
2023/07/08 04:42:17;;;;;;;12.30;7.28;;;;;;;23.50;42.10;100018.84;6045427;23;20026;-83
2023/07/08 04:44:44;;;;;;;12.52;7.85;;;;;;;23.55;41.99;100020.91;6092502;23;20033;-83
2023/07/08 04:47:13;;;;;;;11.68;8.38;;;;;;;23.58;41.80;100018.63;6093522;23;20040;-85
2023/07/08 04:49:43;;;;;;;11.73;7.63;;;;;;;23.62;41.64;100019.81;6070094;23;20045;-84
2023/07/08 04:52:10;;;;;;;11.68;7.22;;;;;;;23.69;41.96;100014.38;6046885;23;20361;-84
2023/07/08 04:54:37;;;;;;;11.30;7.35;;;;;;;23.66;42.29;100005.81;6092656;23;20053;-84
2023/07/08 04:57:04;;;;;;;13.43;7.53;;;;;;;23.62;42.22;100011.69;6093525;23;20740;-84
2023/07/08 04:59:34;;;;;;;12.05;7.43;;;;;;;23.67;42.53;100004.78;6070598;23;20366;-84
2023/07/08 05:02:01;;;;;;;13.25;8.73;;;;;;;23.71;42.28;100009.56;6119620;23;20080;-83
2023/07/08 05:04:28;;;;;;;11.32;7.65;;;;;;;23.73;42.57;100004.78;6071138;23;20466;-84
2023/07/08 05:06:55;;;;;;;12.38;7.10;;;;;;;23.74;42.35;100013.75;6047978;23;20092;-84
2023/07/08 05:09:25;;;;;;;11.38;7.03;;;;;;;23.74;42.54;100022.72;6071713;23;20025;-84
2023/07/08 05:11:52;;;;;;;11.30;6.65;;;;;;;23.67;42.26;100010.22;6072860;23;20457;-84
2023/07/08 05:14:19;;;;;;;12.88;7.18;;;;;;;23.59;42.15;100006.72;6096146;23;20018;-84
2023/07/08 05:16:46;;;;;;;11.40;7.43;;;;;;;23.56;42.88;100011.72;6119511;23;20101;-84
2023/07/08 05:19:13;;;;;;;10.05;6.93;;;;;;;23.61;42.97;100020.88;6072146;23;20028;-84
2023/07/08 05:21:39;;;;;;;10.38;7.13;;;;;;;23.65;42.94;100015.84;6096338;23;20462;-84
2023/07/08 05:24:07;;;;;;;13.10;7.60;;;;;;;23.70;42.92;100018.75;6072416;23;20102;-84
2023/07/08 05:26:34;;;;;;;12.02;7.32;;;;;;;23.74;42.21;100016.47;6095533;23;20047;-84
2023/07/08 05:29:01;;;;;;;11.02;6.97;;;;;;;23.74;41.97;100008.34;6095469;23;20026;-84
2023/07/08 05:31:28;;;;;;;10.70;6.80;;;;;;;23.73;41.84;100012.91;6072321;23;20025;-86
2023/07/08 05:33:58;;;;;;;12.15;6.53;;;;;;;23.71;41.90;100019.56;6094844;23;20034;-86
2023/07/08 05:36:25;;;;;;;10.38;6.95;;;;;;;23.76;41.93;100014.34;6095455;23;20345;-84
2023/07/08 05:38:51;;;;;;;10.38;6.40;;;;;;;23.77;41.80;100013.31;6095191;23;20026;-84
2023/07/08 05:41:18;;;;;;;9.90;6.30;;;;;;;23.85;41.64;100004.91;6120664;23;20389;-84
2023/07/08 05:43:45;;;;;;;12.05;6.55;;;;;;;23.84;41.66;100000.56;6070346;23;20041;-84
2023/07/08 05:46:13;;;;;;;11.50;6.35;;;;;;;23.85;41.29;100004.91;6072535;23;20035;-84
2023/07/08 05:48:40;;;;;;;11.65;7.25;;;;;;;23.88;41.83;100001.75;6119959;23;20014;-83
2023/07/08 05:51:07;;;;;;;10.02;6.80;;;;;;;23.96;41.96;100001.50;6071257;23;20033;-84
2023/07/08 05:53:34;;;;;;;9.93;6.88;;;;;;;23.92;41.29;100002.19;6093581;23;20096;-84
2023/07/08 05:56:02;;;;;;;8.32;5.60;;;;;;;23.94;40.00;99998.19;6096512;23;20459;-84
2023/07/08 05:58:29;;;;;;;9.10;5.72;;;;;;;23.97;40.17;100000.47;6071767;23;20033;-84
2023/07/08 06:00:57;;;;;;;10.55;6.00;;;;;;;24.05;40.01;100000.19;6118454;23;20803;-84
2023/07/08 06:03:25;;;;;;;9.85;6.13;;;;;;;24.02;39.66;99997.09;6094982;23;20339;-85
2023/07/08 06:05:52;;;;;;;9.60;6.38;;;;;;;24.03;39.94;99996.03;6070080;23;20027;-85
2023/07/08 06:08:19;;;;;;;10.98;6.05;;;;;;;24.03;39.90;100007.72;6048435;23;20092;-84
2023/07/08 06:10:46;;;;;;;8.63;6.10;;;;;;;24.09;40.04;100000.56;6070225;23;20044;-84
2023/07/08 06:13:13;;;;;;;8.18;5.25;;;;;;;24.11;40.25;100014.75;6094699;23;20045;-83
2023/07/08 06:15:41;;;;;;;9.27;5.97;;;;;;;24.12;40.26;100012.84;6071131;23;20097;-83
2023/07/08 06:18:07;;;;;;;9.00;5.90;;;;;;;24.13;39.96;100018.06;6093656;23;20563;-85
2023/07/08 06:20:34;;;;;;;9.98;5.70;;;;;;;24.16;39.98;100030.38;6094704;23;20111;-84
2023/07/08 06:23:01;;;;;;;9.27;5.70;;;;;;;24.18;39.78;100034.53;6093337;23;20073;-82
2023/07/08 06:25:28;;;;;;;8.38;5.75;;;;;;;24.22;39.87;100046.63;6094768;23;20084;-84
2023/07/08 06:27:55;;;;;;;9.00;5.35;;;;;;;24.24;39.96;100055.34;6068863;23;20025;-83
2023/07/08 06:30:21;;;;;;;10.00;5.78;;;;;;;24.26;40.12;100080.38;6069940;23;20025;-83
2023/07/08 06:32:49;;;;;;;9.10;5.45;;;;;;;24.31;40.61;100087.88;6092932;23;20036;-83
2023/07/08 06:35:15;;;;;;;9.50;5.50;;;;;;;24.31;40.79;100097.91;6070593;23;20022;-83
2023/07/08 06:37:42;;;;;;;8.75;5.07;;;;;;;24.29;41.29;100091.84;6117799;23;20018;-83
2023/07/08 06:40:10;;;;;;;9.70;5.95;;;;;;;24.30;41.13;100088.94;6094130;23;20105;-83
2023/07/08 06:42:36;;;;;;;8.02;5.07;;;;;;;24.32;41.00;100080.56;6046232;23;20018;-85
2023/07/08 06:45:11;;;;;;;9.30;5.45;;;;;;;24.39;41.29;100076.75;6094441;23;20045;-83
2023/07/08 06:47:38;;;;;;;12.77;5.75;;;;;;;24.44;41.41;100082.34;6070649;23;20101;-84
2023/07/08 06:50:06;;;;;;;7.88;5.60;;;;;;;24.48;41.46;100080.88;6047500;23;20021;-85
2023/07/08 06:52:36;;;;;;;13.07;5.90;;;;;;;24.51;41.52;100076.06;6070492;23;20033;-85
2023/07/08 06:55:06;;;;;;;8.98;6.40;;;;;;;24.56;41.93;100078.97;6071257;23;20042;-84
2023/07/08 06:57:33;;;;;;;14.07;5.82;;;;;;;24.58;41.52;100068.72;6095190;23;20072;-84
2023/07/08 07:00:00;;;;;;;8.65;5.45;;;;;;;24.58;41.41;100074.16;6094857;23;20032;-83
2023/07/08 07:02:27;;;;;;;8.77;5.90;;;;;;;24.62;40.91;100064.47;6070464;23;20092;-83
2023/07/08 07:04:55;;;;;;;9.70;5.40;;;;;;;24.59;41.47;100067.66;6094381;23;20025;-83
2023/07/08 07:07:22;;;;;;;11.45;5.97;;;;;;;24.62;41.67;100057.16;6119121;23;20097;-83
2023/07/08 07:09:49;;;;;;;8.32;5.70;;;;;;;24.66;41.07;100063.81;6094557;23;20049;-82
2023/07/08 07:12:15;;;;;;;6.93;5.45;;;;;;;24.69;41.61;100057.13;6095511;23;20093;-83
2023/07/08 07:14:42;;;;;;;10.02;5.03;;;;;;;24.72;41.31;100055.84;6070972;23;20688;-83
2023/07/08 07:17:12;;;;;;;7.35;5.35;;;;;;;24.76;41.03;100047.03;6094334;23;20033;-83
2023/07/08 07:19:39;;;;;;;7.78;5.15;;;;;;;24.74;40.79;100043.69;6070214;23;20029;-83
2023/07/08 07:22:06;;;;;;;8.57;6.15;;;;;;;24.84;41.09;100048.63;6071599;23;20025;-83
2023/07/08 07:24:33;;;;;;;8.40;5.53;;;;;;;24.82;40.88;100050.72;6070863;23;20473;-83
2023/07/08 07:27:00;;;;;;;8.23;5.40;;;;;;;24.84;41.01;100057.59;6094051;23;20359;-83
2023/07/08 07:29:26;;;;;;;9.63;5.85;;;;;;;24.84;40.78;100046.72;6071699;23;20099;-82
2023/07/08 07:31:54;;;;;;;7.82;5.82;;;;;;;24.87;41.26;100045.44;6095136;23;20033;-83
2023/07/08 07:34:21;;;;;;;8.43;5.68;;;;;;;24.89;40.70;100052.31;6144633;23;20029;-83
2023/07/08 07:36:48;;;;;;;9.35;5.32;;;;;;;24.94;41.03;100058.97;6071600;23;20014;-83
2023/07/08 07:39:15;;;;;;;8.55;5.13;;;;;;;24.96;41.11;100052.25;6070870;23;20759;-83
2023/07/08 07:41:42;;;;;;;13.13;6.05;;;;;;;25.02;41.38;100056.78;6048013;23;20039;-83
2023/07/08 07:44:08;;;;;;;8.05;5.10;;;;;;;25.06;41.60;100049.84;6092578;23;20109;-83
2023/07/08 07:46:35;;;;;;;7.07;4.65;;;;;;;25.09;41.85;100043.97;6070745;23;20085;-83
2023/07/08 07:49:02;;;;;;;9.93;5.10;;;;;;;25.18;41.68;100044.50;6070878;23;20021;-82
2023/07/08 07:51:29;;;;;;;7.88;4.45;;;;;;;25.21;42.01;100054.94;6071895;23;20028;-83
2023/07/08 07:53:56;;;;;;;8.82;5.00;;;;;;;25.26;42.22;100052.34;6044956;23;20025;-84
2023/07/08 07:56:25;;;;;;;10.35;5.03;;;;;;;25.30;42.42;100044.59;6093864;23;20009;-84
2023/07/08 07:58:52;;;;;;;11.18;4.70;;;;;;;25.35;42.83;100044.75;6069940;23;20449;-85
2023/07/08 08:01:19;;;;;;;9.95;5.35;;;;;;;25.37;42.72;100053.50;6071209;23;20023;-83
2023/07/08 08:03:50;;;;;;;7.35;5.13;;;;;;;25.42;42.73;100067.25;6069717;23;20060;-85
2023/07/08 08:06:17;;;;;;;8.52;5.15;;;;;;;25.47;42.63;100063.84;6094882;23;20033;-86
2023/07/08 08:08:45;;;;;;;9.82;6.00;;;;;;;25.46;43.00;100051.31;6094466;23;20111;-84
2023/07/08 08:11:12;;;;;;;10.93;5.47;;;;;;;25.52;42.87;100058.56;6094286;23;20017;-84
2023/07/08 08:13:39;;;;;;;7.75;5.22;;;;;;;25.56;43.20;100052.41;6070562;23;20105;-84
2023/07/08 08:16:08;;;;;;;8.70;5.13;;;;;;;25.61;43.26;100053.63;6120526;23;20025;-83
2023/07/08 08:18:34;;;;;;;9.90;5.40;;;;;;;25.64;43.30;100050.44;6070332;23;20017;-83
2023/07/08 08:21:01;;;;;;;9.40;4.78;;;;;;;25.69;43.89;100061.47;6118542;23;20053;-84
2023/07/08 08:23:29;;;;;;;7.68;4.78;;;;;;;25.70;43.42;100055.81;6069814;23;20029;-84
2023/07/08 08:25:59;;;;;;;7.20;4.20;;;;;;;25.77;43.70;100063.84;6093614;23;20120;-83
2023/07/08 08:28:26;;;;;;;6.72;4.65;;;;;;;25.77;43.98;100067.44;6118595;23;20088;-83
2023/07/08 08:30:53;;;;;;;7.93;4.30;;;;;;;25.80;43.67;100062.56;6143921;23;20029;-83
2023/07/08 08:33:20;;;;;;;6.30;4.05;;;;;;;25.86;44.15;100067.13;6069372;23;20119;-83
2023/07/08 08:35:47;;;;;;;9.95;4.22;;;;;;;25.90;44.73;100058.28;6094361;23;20029;-83
2023/07/08 08:38:14;;;;;;;13.90;6.07;;;;;;;25.91;44.04;100070.81;6094923;23;20045;-83
2023/07/08 08:40:42;;;;;;;7.57;4.90;;;;;;;25.91;43.56;100068.09;6070612;23;20097;-83
2023/07/08 08:43:33;;;;;;;7.38;4.93;;;;;;;25.84;43.90;100067.31;6092705;23;20130;-83
2023/07/08 08:46:04;;;;;;;7.85;4.35;;;;;;;25.91;43.87;100081.69;6094321;23;20018;-84
2023/07/08 08:48:37;;;;;;;8.18;3.95;;;;;;;25.95;43.92;100063.88;6119153;23;20033;-83
2023/07/08 08:51:08;;;;;;;7.07;3.67;;;;;;;25.99;44.08;100064.22;6093967;23;20036;-84
2023/07/08 08:53:35;;;;;;;7.95;3.65;;;;;;;26.06;43.73;100070.41;6093113;23;20460;-85
2023/07/08 08:56:40;;;;;;;5.05;3.40;;;;;;;26.00;43.28;100054.97;6070425;23;20036;-84
2023/07/08 08:59:32;;;;;;;6.50;3.45;;;;;;;26.06;42.63;100066.84;6000053;23;20341;-85
2023/07/08 09:01:59;;;;;;;6.50;3.10;;;;;;;26.08;42.88;100075.59;6068634;23;20497;-83
2023/07/08 09:04:33;;;;;;;5.55;2.60;;;;;;;26.05;42.80;100071.44;6069853;23;20017;-84
2023/07/08 09:07:06;;;;;;;6.20;3.55;;;;;;;26.11;42.73;100073.25;6117846;23;20018;-85
2023/07/08 09:09:39;;;;;;;6.30;3.20;;;;;;;26.13;42.43;100079.31;6117573;23;20458;-84
2023/07/08 09:12:13;;;;;;;6.13;2.70;;;;;;;26.14;42.42;100077.41;6045779;23;20480;-82
2023/07/08 09:14:41;;;;;;;6.55;2.65;;;;;;;26.22;42.10;100073.53;6092775;23;20018;-83
2023/07/08 09:17:14;;;;;;;8.20;3.30;;;;;;;26.23;41.75;100075.16;6068874;23;20018;-82
2023/07/08 09:19:45;;;;;;;4.25;2.85;;;;;;;26.23;42.03;100072.44;6117435;23;20499;-84
2023/07/08 09:22:24;;;;;;;5.97;3.40;;;;;;;26.30;41.84;100076.72;6070244;23;20179;-82
2023/07/08 09:24:56;;;;;;;7.03;3.45;;;;;;;26.31;42.32;100072.97;6093889;23;20434;-85
2023/07/08 09:27:23;;;;;;;5.68;2.92;;;;;;;26.33;43.10;100075.44;6069479;23;20021;-84
2023/07/08 09:29:50;;;;;;;5.60;3.17;;;;;;;26.36;42.64;100067.66;6094260;23;20516;-83
2023/07/08 09:32:24;;;;;;;7.85;3.50;;;;;;;26.33;41.99;100056.38;6069741;23;20030;-83
2023/07/08 09:35:12;;;;;;;6.50;3.42;;;;;;;26.34;42.05;100066.22;6092724;23;20349;-83
2023/07/08 09:37:45;;;;;;;8.88;3.22;;;;;;;26.35;42.13;100059.69;6093923;23;20022;-84
2023/07/08 09:40:15;;;;;;;;;;;;;;;26.22;42.46;100055.28;6093811;23;20330;-84
2023/07/08 09:42:43;;;;;;;5.57;2.88;;;;;;;26.39;42.52;100056.28;6118869;23;19939;-84
2023/07/08 09:45:15;;;;;;;7.70;3.50;;;;;;;26.48;41.64;100053.19;6116945;23;20030;-83
2023/07/08 09:47:45;;;;;;;5.32;3.05;;;;;;;26.45;42.44;100054.50;6118039;23;20028;-83
2023/07/08 09:50:19;;;;;;;4.88;3.20;;;;;;;26.47;42.31;100057.00;6071167;23;20029;-83
2023/07/08 09:52:51;;;;;;;6.85;2.97;;;;;;;26.48;41.73;100054.03;6093998;23;20052;-82
2023/07/08 09:55:18;;;;;;;5.22;2.95;;;;;;;26.56;42.54;100055.59;6094223;23;20056;-85
2023/07/08 09:57:47;;;;;;;7.05;3.83;;;;;;;26.60;42.24;100060.34;6120359;23;20092;-82
2023/07/08 10:00:24;;;;;;;6.03;3.70;;;;;;;26.61;42.02;100070.19;6120320;23;20089;-82
2023/07/08 10:02:56;;;;;;;4.57;2.90;;;;;;;26.60;42.23;100060.34;6117736;23;20009;-82
2023/07/08 10:05:27;;;;;;;5.57;3.50;;;;;;;26.70;41.34;100056.22;6094451;23;20020;-83
2023/07/08 10:07:56;;;;;;;6.30;3.53;;;;;;;26.76;42.16;100063.44;6094935;23;20402;-83
2023/07/08 10:10:32;;;;;;;7.28;4.20;;;;;;;26.70;41.99;100059.78;6070876;23;20601;-83
2023/07/08 10:13:02;;;;;;;7.50;3.70;;;;;;;26.76;41.70;100063.44;6070479;23;20500;-83
2023/07/08 10:15:32;;;;;;;6.40;3.50;;;;;;;26.78;42.35;100056.69;6071973;23;20032;-83
2023/07/08 10:17:59;;;;;;;6.97;3.90;;;;;;;26.78;42.08;100053.13;6095873;23;20029;-82
2023/07/08 10:20:34;;;;;;;8.20;4.00;;;;;;;26.77;42.42;100056.94;6118812;23;20018;-84
2023/07/08 10:23:33;;;;;;;5.80;4.35;;;;;;;26.66;42.46;100047.69;6070462;23;20022;-81
2023/07/08 10:26:27;;;;;;;6.75;4.30;;;;;;;26.68;42.37;100052.91;6072207;23;20441;-83
2023/07/08 10:29:20;;;;;;;7.00;4.43;;;;;;;26.75;42.80;100045.44;6086242;23;25910;-82
2023/07/08 10:32:29;;;;;;;8.10;3.65;;;;;;;26.75;42.27;100051.72;6118762;23;20017;-83
2023/07/08 10:35:20;;;;;;;7.50;3.75;;;;;;;26.92;41.89;100042.81;6093203;23;20052;-83
2023/07/08 10:38:05;;;;;;;7.03;3.88;;;;;;;26.87;42.11;100061.78;6092841;23;20029;-83
2023/07/08 10:40:48;;;;;;;7.03;3.97;;;;;;;26.94;41.93;100046.13;6117447;23;20458;-82
2023/07/08 10:43:39;;;;;;;7.30;4.45;;;;;;;26.95;41.94;100056.00;6118528;23;20021;-82
2023/07/08 10:46:15;;;;;;;6.75;4.00;;;;;;;26.96;42.23;100046.72;6095401;23;20100;-82
2023/07/08 10:49:01;;;;;;;6.43;4.30;;;;;;;26.91;42.04;100050.16;6093487;23;20017;-83
2023/07/08 10:51:43;;;;;;;7.82;4.22;;;;;;;26.93;42.34;100048.03;6095693;23;20053;-81
2023/07/08 10:54:18;;;;;;;;;;;;;;;26.92;42.53;100042.81;6070418;23;20027;-83
2023/07/08 10:56:54;;;;;;;6.65;3.95;;;;;;;27.04;42.16;100043.63;6118899;23;19920;-83
2023/07/08 10:59:44;;;;;;;10.15;4.65;;;;;;;27.00;41.95;100047.94;6092970;23;20108;-83
2023/07/08 11:02:20;;;;;;;7.05;4.45;;;;;;;27.09;41.81;100040.19;6119142;23;20029;-82
2023/07/08 11:05:11;;;;;;;7.90;4.10;;;;;;;27.05;41.99;100031.69;6092931;23;20022;-82
2023/07/08 11:07:42;;;;;;;7.53;4.35;;;;;;;27.11;42.45;100029.91;6094659;23;20044;-82
2023/07/08 11:10:23;;;;;;;6.07;3.63;;;;;;;27.06;43.04;100028.69;6070707;23;20021;-82
2023/07/08 11:12:55;;;;;;;7.95;3.97;;;;;;;27.10;42.36;100026.34;6094311;23;20499;-82
2023/07/08 11:15:30;;;;;;;9.23;4.43;;;;;;;27.11;42.77;100014.34;6094513;23;20025;-83
2023/07/08 11:18:18;;;;;;;13.05;4.25;;;;;;;27.15;43.00;100012.81;6046662;23;20017;-81
2023/07/08 11:20:54;;;;;;;6.97;4.60;;;;;;;27.18;43.88;100026.00;6094097;23;20025;-82
2023/07/08 11:23:40;;;;;;;8.30;4.40;;;;;;;27.16;43.11;100013.66;6094190;23;20045;-81
2023/07/08 11:26:24;;;;;;;10.13;4.05;;;;;;;27.25;42.88;100010.34;6071516;23;20052;-81
2023/07/08 11:28:53;;;;;;;11.95;4.55;;;;;;;27.26;42.10;100014.72;6119465;23;20563;-82
2023/07/08 11:31:20;;;;;;;7.93;4.18;;;;;;;27.28;42.32;100009.84;6094573;23;20025;-81
2023/07/08 11:33:47;;;;;;;9.40;4.00;;;;;;;27.31;42.63;100015.91;6070180;23;20347;-82
2023/07/08 11:36:15;;;;;;;6.55;4.25;;;;;;;27.31;42.73;100003.09;6047475;23;20020;-81
2023/07/08 11:38:49;;;;;;;11.80;4.97;;;;;;;27.31;42.90;100005.81;6094741;23;20515;-81